Terminal Aerodrome Forecast
Issued by NWS

Home | Current Version | Previous Version | Text Only | Print | Product List | Glossary Off
Versions: 1 2 3 4 5 6 7 8 9 10 11 12 13 14 15

000
FTUS43 KBIS 212331
TAFDIK
TAF
KDIK 212331Z 2200/2224 31016G24KT P6SM VCSH BKN110
     FM220300 29008KT P6SM SCT120
     FM220600 30009KT P6SM VCSH OVC070
     FM221300 35013G21KT P6SM OVC035
     FM221800 35014G22KT P6SM BKN060=

USA.gov is the U.S. government's official web portal to all federal, state and local government web resources and services.